Time;durP1;ratioP1;P1;durP2;ratioP2;P2;SDS_P1;SDS_P2;PMS_P1;PMS_P2;Temp;Humidity;BMP_temperature;BMP_pressure;BME280_temperature;BME280_humidity;BME280_pressure;Samples;Min_cycle;Max_cycle;Signal;HPM_P1;HPM_P2
2021/01/11 00:00:27;;;;;;;23.55;14.60;;;1.60;99.90;;;;;;5099644;28;20047;-79
2021/01/11 00:02:54;;;;;;;28.08;14.43;;;1.50;99.90;;;;;;5102173;28;20135;-79
2021/01/11 00:05:21;;;;;;;22.10;13.25;;;1.50;99.90;;;;;;5104609;28;20143;-78
2021/01/11 00:07:47;;;;;;;25.63;13.88;;;1.50;99.90;;;;;;5101173;28;20040;-78
2021/01/11 00:10:14;;;;;;;20.42;12.63;;;1.40;99.90;;;;;;5103128;28;20567;-78
2021/01/11 00:12:42;;;;;;;19.92;12.68;;;1.40;99.90;;;;;;5095096;28;20126;-79
2021/01/11 00:15:11;;;;;;;20.92;13.35;;;1.40;99.90;;;;;;5093273;28;20127;-78
2021/01/11 00:17:38;;;;;;;21.73;13.10;;;1.40;99.90;;;;;;5093673;28;20127;-79
2021/01/11 00:20:06;;;;;;;19.35;12.55;;;1.40;99.90;;;;;;5093060;28;20138;-78
2021/01/11 00:22:33;;;;;;;22.02;13.50;;;1.40;99.90;;;;;;5093062;28;20051;-78
2021/01/11 00:25:00;;;;;;;19.35;12.35;;;1.40;99.90;;;;;;5094835;28;20135;-78
2021/01/11 00:27:26;;;;;;;18.90;11.85;;;1.40;99.90;;;;;;5094137;28;20127;-79
2021/01/11 00:29:53;;;;;;;17.90;11.98;;;1.40;99.90;;;;;;5093685;28;20063;-77
2021/01/11 00:32:20;;;;;;;20.13;11.98;;;1.30;99.90;;;;;;5092984;28;20468;-79
2021/01/11 00:34:46;;;;;;;18.75;11.63;;;1.30;99.90;;;;;;5093215;28;20144;-81
2021/01/11 00:37:12;;;;;;;20.85;11.38;;;1.30;99.90;;;;;;5095205;28;20134;-79
2021/01/11 00:39:39;;;;;;;23.73;12.18;;;1.30;99.90;;;;;;5096860;28;20563;-79
2021/01/11 00:42:06;;;;;;;19.40;12.18;;;1.20;99.90;;;;;;5081375;28;20131;-78
2021/01/11 00:44:32;;;;;;;21.48;11.98;;;1.30;99.90;;;;;;5073507;28;20064;-78
2021/01/11 00:46:59;;;;;;;20.15;11.73;;;1.30;99.90;;;;;;5072948;28;20183;-78
2021/01/11 00:49:27;;;;;;;17.33;11.18;;;1.20;99.90;;;;;;5072236;28;20421;-79
2021/01/11 00:51:54;;;;;;;18.45;11.40;;;1.20;99.90;;;;;;5072298;28;20135;-81
2021/01/11 00:54:20;;;;;;;19.20;11.77;;;1.20;99.90;;;;;;5071627;28;20133;-80
2021/01/11 00:56:46;;;;;;;19.98;11.93;;;1.20;99.90;;;;;;5071205;28;20127;-79
2021/01/11 00:59:13;;;;;;;21.65;11.32;;;1.20;99.90;;;;;;5070482;28;20588;-79
2021/01/11 01:01:47;;;;;;;19.27;11.65;;;1.20;99.90;;;;;;5072031;28;20552;-82
2021/01/11 01:04:14;;;;;;;18.92;11.65;;;1.20;99.90;;;;;;5073160;28;20048;-79
2021/01/11 01:06:41;;;;;;;16.95;11.20;;;1.30;99.90;;;;;;5074426;28;20483;-80
2021/01/11 01:09:07;;;;;;;19.42;11.07;;;1.30;99.90;;;;;;5074892;28;20135;-80
2021/01/11 01:11:37;;;;;;;20.50;11.88;;;1.30;99.90;;;;;;5076064;28;20551;-79
2021/01/11 01:14:03;;;;;;;17.95;10.90;;;1.40;99.90;;;;;;5077279;28;20060;-80
2021/01/11 01:16:30;;;;;;;19.52;11.65;;;1.40;99.90;;;;;;5076001;28;20122;-79
2021/01/11 01:18:56;;;;;;;24.00;11.95;;;1.50;99.90;;;;;;5072278;28;20052;-79
2021/01/11 01:21:23;;;;;;;21.33;11.80;;;1.50;99.90;;;;;;5072195;28;20140;-78
2021/01/11 01:23:50;;;;;;;19.65;11.32;;;1.50;99.90;;;;;;5072422;28;20128;-80
2021/01/11 01:26:16;;;;;;;22.00;11.68;;;1.50;99.90;;;;;;5072249;28;20139;-77
2021/01/11 01:28:43;;;;;;;18.17;11.23;;;1.50;99.90;;;;;;5072535;28;20132;-79
2021/01/11 01:31:09;;;;;;;21.55;12.50;;;1.50;99.90;;;;;;5074329;28;20155;-78
2021/01/11 01:33:35;;;;;;;17.75;11.23;;;1.40;99.90;;;;;;5072938;28;20059;-80
2021/01/11 01:36:02;;;;;;;20.33;12.45;;;1.40;99.90;;;;;;5072289;28;20083;-79
2021/01/11 01:38:29;;;;;;;20.02;11.65;;;1.50;99.90;;;;;;5071712;28;20576;-78
2021/01/11 01:40:56;;;;;;;16.95;10.70;;;1.40;99.90;;;;;;5072084;28;20471;-78
2021/01/11 01:43:23;;;;;;;20.30;11.20;;;1.40;99.90;;;;;;5071790;28;20155;-78
2021/01/11 01:45:49;;;;;;;16.83;10.50;;;1.40;99.90;;;;;;5071699;28;20564;-78
2021/01/11 01:48:16;;;;;;;17.38;11.07;;;1.40;99.90;;;;;;5071989;28;20051;-79
2021/01/11 01:50:42;;;;;;;19.52;10.00;;;1.40;99.90;;;;;;5071801;28;20153;-77
2021/01/11 01:53:09;;;;;;;15.38;9.23;;;1.30;99.90;;;;;;5072137;28;20136;-79
2021/01/11 01:55:36;;;;;;;16.33;9.10;;;1.30;99.90;;;;;;5075876;28;20112;-79
2021/01/11 01:58:05;;;;;;;15.77;8.73;;;1.30;99.90;;;;;;5075675;28;20155;-79
2021/01/11 02:00:32;;;;;;;14.77;7.65;;;1.20;99.90;;;;;;5075156;28;20572;-79
2021/01/11 02:02:59;;;;;;;15.05;8.23;;;1.30;99.90;;;;;;5075223;28;20080;-79
2021/01/11 02:05:25;;;;;;;13.23;7.65;;;1.20;99.90;;;;;;5075060;28;20053;-79
2021/01/11 02:08:03;;;;;;;13.05;7.85;;;1.20;99.90;;;;;;5075671;28;20541;-78
2021/01/11 02:10:40;;;;;;;13.30;7.90;;;1.20;99.90;;;;;;5075669;28;20079;-79
2021/01/11 02:13:31;;;;;;;13.75;8.40;;;1.20;99.90;;;;;;5074919;28;20097;-78
2021/01/11 02:16:07;;;;;;;13.85;8.25;;;1.10;99.90;;;;;;5075116;28;20088;-79
2021/01/11 02:18:44;;;;;;;14.02;8.60;;;1.10;99.90;;;;;;5074797;28;20131;-78
2021/01/11 02:21:36;;;;;;;13.68;8.88;;;1.10;99.90;;;;;;5074741;28;20052;-78
2021/01/11 02:24:37;;;;;;;13.45;8.15;;;1.10;99.90;;;;;;5075036;28;20053;-81
2021/01/11 02:27:33;;;;;;;13.85;7.65;;;1.10;99.90;;;;;;5059470;28;20091;-79
2021/01/11 02:30:30;;;;;;;10.98;6.97;;;1.10;99.90;;;;;;5074675;28;20132;-78
2021/01/11 02:33:02;;;;;;;11.25;7.03;;;1.10;99.90;;;;;;5074701;28;20118;-78
2021/01/11 02:35:30;;;;;;;13.27;6.97;;;1.00;99.90;;;;;;5074766;28;20134;-78
2021/01/11 02:37:58;;;;;;;10.85;7.47;;;1.00;99.90;;;;;;5074738;28;20533;-78
2021/01/11 02:40:25;;;;;;;12.63;7.82;;;1.00;99.90;;;;;;5074718;28;20060;-77
2021/01/11 02:42:51;;;;;;;10.98;6.88;;;1.00;99.90;;;;;;5075479;28;20052;-79
2021/01/11 02:45:19;;;;;;;12.30;7.25;;;1.00;99.90;;;;;;5075076;28;20584;-78
2021/01/11 02:47:58;;;;;;;11.23;6.90;;;1.10;99.90;;;;;;5074722;28;20131;-78
2021/01/11 02:50:26;;;;;;;9.45;6.43;;;1.10;99.90;;;;;;5074328;28;20136;-78
2021/01/11 02:53:07;;;;;;;12.23;7.10;;;1.10;99.90;;;;;;5074476;28;20178;-80
2021/01/11 02:55:44;;;;;;;9.75;6.97;;;1.10;99.90;;;;;;5074456;28;20052;-77
2021/01/11 02:58:19;;;;;;;11.63;7.40;;;1.10;99.90;;;;;;5074079;28;20048;-78
2021/01/11 03:00:48;;;;;;;12.48;6.80;;;1.10;99.90;;;;;;5074305;28;20131;-78
2021/01/11 03:03:17;;;;;;;13.48;6.85;;;1.10;99.90;;;;;;5073867;28;20500;-78
2021/01/11 03:05:44;;;;;;;11.15;6.72;;;1.20;99.90;;;;;;5074013;28;20136;-78
2021/01/11 03:08:10;;;;;;;10.55;7.28;;;1.20;99.90;;;;;;5074027;28;20080;-77
2021/01/11 03:10:37;;;;;;;9.13;6.65;;;1.20;99.90;;;;;;5073648;28;20052;-78
2021/01/11 03:13:03;;;;;;;12.80;6.60;;;1.20;99.90;;;;;;5073786;28;20331;-78
2021/01/11 03:15:29;;;;;;;10.75;6.75;;;1.20;99.90;;;;;;5074134;28;20136;-80
2021/01/11 03:17:57;;;;;;;10.20;7.00;;;1.20;99.90;;;;;;5074041;28;20179;-78
2021/01/11 03:22:51;;;;;;;12.05;6.82;;;1.30;99.90;;;;;;5049366;28;20049;-78
2021/01/11 03:25:17;;;;;;;11.00;6.70;;;1.30;99.90;;;;;;5057187;28;20485;-79
2021/01/11 03:27:44;;;;;;;11.80;6.18;;;1.30;99.90;;;;;;5057091;28;20454;-78
2021/01/11 03:30:11;;;;;;;11.02;6.43;;;1.30;99.90;;;;;;5064089;28;20040;-79
2021/01/11 03:32:38;;;;;;;10.77;6.45;;;1.20;99.90;;;;;;5071196;28;20049;-79
2021/01/11 03:35:06;;;;;;;11.38;7.15;;;1.30;99.90;;;;;;5071376;28;20048;-79
2021/01/11 03:37:33;;;;;;;12.63;6.38;;;1.30;99.90;;;;;;5069699;28;20052;-79
2021/01/11 03:39:59;;;;;;;10.70;6.50;;;1.30;99.90;;;;;;5069389;28;20063;-78
2021/01/11 03:42:25;;;;;;;14.23;7.45;;;1.30;99.90;;;;;;5068978;28;20052;-79
2021/01/11 03:44:52;;;;;;;12.77;7.40;;;1.30;99.90;;;;;;5070404;28;20136;-80
2021/01/11 03:47:20;;;;;;;9.30;6.88;;;1.30;99.90;;;;;;5070444;28;20485;-79
2021/01/11 03:49:46;;;;;;;10.95;6.85;;;1.30;99.90;;;;;;5069006;28;20049;-80
2021/01/11 03:52:16;;;;;;;14.57;7.15;;;1.30;99.90;;;;;;5068434;28;20057;-79
2021/01/11 03:54:43;;;;;;;10.23;6.97;;;1.30;99.90;;;;;;5067082;28;20088;-82
2021/01/11 03:57:09;;;;;;;13.10;7.63;;;1.20;99.90;;;;;;5062516;28;20088;-82
2021/01/11 03:59:35;;;;;;;11.10;7.00;;;1.10;99.90;;;;;;5062057;28;20382;-82
2021/01/11 04:02:02;;;;;;;10.20;6.75;;;1.10;99.90;;;;;;5062215;28;20481;-82
2021/01/11 04:04:28;;;;;;;10.20;6.50;;;1.10;99.90;;;;;;5068827;28;20053;-80
2021/01/11 04:06:55;;;;;;;9.88;7.13;;;1.10;99.90;;;;;;5069834;28;20068;-79
2021/01/11 04:09:22;;;;;;;11.40;6.65;;;1.00;99.90;;;;;;5075133;28;20044;-77
2021/01/11 04:11:49;;;;;;;11.65;7.03;;;1.10;99.90;;;;;;5076410;28;20041;-80
2021/01/11 04:14:15;;;;;;;12.07;7.20;;;1.10;99.90;;;;;;5072214;28;20049;-81
2021/01/11 04:16:43;;;;;;;12.05;6.68;;;1.20;99.90;;;;;;5073449;28;20048;-80
2021/01/11 04:19:10;;;;;;;10.32;6.97;;;1.30;99.90;;;;;;5075798;28;20044;-79
2021/01/11 04:21:36;;;;;;;10.48;6.80;;;1.30;99.90;;;;;;5073530;28;20045;-79
2021/01/11 04:24:03;;;;;;;11.05;7.22;;;1.40;99.90;;;;;;5076192;28;20033;-78
2021/01/11 04:26:30;;;;;;;10.50;6.43;;;1.40;99.90;;;;;;5073026;28;20051;-79
2021/01/11 04:28:57;;;;;;;10.27;6.38;;;1.40;99.90;;;;;;5071941;28;20045;-78
2021/01/11 04:31:23;;;;;;;11.02;6.38;;;1.30;99.90;;;;;;5074104;28;20051;-77
2021/01/11 04:33:50;;;;;;;11.65;6.43;;;1.30;99.90;;;;;;5076090;28;20044;-78
2021/01/11 04:36:16;;;;;;;10.45;6.70;;;1.20;99.90;;;;;;5071864;28;20049;-79
2021/01/11 04:38:43;;;;;;;11.27;6.10;;;1.20;99.90;;;;;;5070372;28;20060;-79
2021/01/11 04:41:09;;;;;;;9.75;6.30;;;1.20;99.90;;;;;;5069720;28;20052;-78
2021/01/11 04:43:42;;;;;;;10.02;6.47;;;1.20;99.90;;;;;;5071845;28;20049;-78
2021/01/11 04:46:09;;;;;;;9.82;6.07;;;1.20;99.90;;;;;;5070557;28;20053;-80
2021/01/11 04:48:35;;;;;;;10.57;6.70;;;1.10;99.90;;;;;;5070493;28;20045;-79
2021/01/11 04:51:02;;;;;;;12.68;6.85;;;1.00;99.90;;;;;;5069351;28;20056;-77
2021/01/11 04:53:28;;;;;;;10.07;6.95;;;1.00;99.90;;;;;;5068006;28;20053;-80
2021/01/11 04:55:55;;;;;;;12.50;6.57;;;1.00;99.90;;;;;;5069889;28;20073;-82
2021/01/11 04:58:23;;;;;;;12.40;7.57;;;1.00;99.90;;;;;;5069627;28;20115;-77
2021/01/11 05:00:50;;;;;;;10.43;6.72;;;0.90;99.90;;;;;;5068797;28;20079;-79
2021/01/11 05:03:16;;;;;;;13.15;7.07;;;0.90;99.90;;;;;;5069241;28;20049;-79
2021/01/11 05:05:44;;;;;;;12.88;7.75;;;0.90;99.90;;;;;;5069681;28;20060;-80
2021/01/11 05:08:11;;;;;;;11.88;7.30;;;0.90;99.90;;;;;;5068106;28;20044;-78
2021/01/11 05:10:39;;;;;;;14.65;8.05;;;0.80;99.90;;;;;;5065005;28;20072;-78
2021/01/11 05:13:07;;;;;;;12.80;7.85;;;0.80;99.90;;;;;;5069807;28;20142;-79
2021/01/11 05:15:34;;;;;;;11.50;7.43;;;0.80;99.90;;;;;;5070013;28;20052;-79
2021/01/11 05:18:02;;;;;;;10.82;6.85;;;0.80;99.90;;;;;;5069039;28;20103;-78
2021/01/11 05:20:31;;;;;;;11.55;7.13;;;0.70;99.90;;;;;;5063970;28;20052;-78
2021/01/11 05:22:59;;;;;;;13.90;7.53;;;0.60;99.90;;;;;;5064422;28;20055;-80
2021/01/11 05:25:26;;;;;;;13.02;7.93;;;0.50;99.90;;;;;;5062214;28;20142;-79
2021/01/11 05:28:11;;;;;;;15.40;7.70;;;0.50;99.90;;;;;;5057567;28;20179;-79
2021/01/11 05:30:40;;;;;;;11.52;7.25;;;0.50;99.90;;;;;;5063658;28;20072;-80
2021/01/11 05:33:09;;;;;;;13.60;7.68;;;0.40;99.90;;;;;;5064743;28;20478;-79
2021/01/11 05:35:37;;;;;;;13.32;7.78;;;0.40;99.90;;;;;;5062679;28;20141;-80
2021/01/11 05:38:14;;;;;;;13.73;7.70;;;0.40;99.90;;;;;;5061459;28;20048;-80
2021/01/11 05:40:41;;;;;;;12.18;7.07;;;0.40;99.90;;;;;;5058101;28;20129;-80
2021/01/11 05:43:07;;;;;;;11.40;7.05;;;0.50;99.90;;;;;;5060342;28;20084;-80
2021/01/11 05:45:35;;;;;;;10.80;6.95;;;0.50;99.90;;;;;;5063146;28;20060;-78
2021/01/11 05:48:05;;;;;;;12.02;7.20;;;0.50;99.90;;;;;;5044787;28;20052;-79
2021/01/11 05:50:38;;;;;;;13.18;8.23;;;0.60;99.90;;;;;;5062120;28;20119;-79
2021/01/11 05:53:13;;;;;;;14.48;8.25;;;0.60;99.90;;;;;;5061282;28;20053;-79
2021/01/11 05:55:40;;;;;;;18.55;8.57;;;0.60;99.90;;;;;;5061401;28;20056;-78
2021/01/11 05:58:07;;;;;;;11.02;6.93;;;0.60;99.90;;;;;;5058942;28;20095;-78
2021/01/11 06:00:35;;;;;;;13.40;7.93;;;0.70;99.90;;;;;;5058645;28;20521;-78
2021/01/11 06:03:03;;;;;;;12.40;7.88;;;0.70;99.90;;;;;;5062427;28;20417;-78
2021/01/11 06:05:31;;;;;;;12.57;7.90;;;0.70;99.90;;;;;;5065443;28;20045;-77
2021/01/11 06:07:59;;;;;;;15.15;8.38;;;0.80;99.90;;;;;;5056712;28;20045;-78
2021/01/11 06:10:26;;;;;;;12.73;7.93;;;0.80;99.90;;;;;;5060612;28;20064;-78
2021/01/11 06:12:53;;;;;;;12.88;8.07;;;0.90;99.90;;;;;;5057262;28;20452;-78
2021/01/11 06:15:22;;;;;;;13.90;7.80;;;0.90;99.90;;;;;;5058099;28;20049;-79
2021/01/11 06:17:50;;;;;;;14.85;7.78;;;0.80;99.90;;;;;;5057149;28;20060;-79
2021/01/11 06:20:18;;;;;;;12.70;7.93;;;0.80;99.90;;;;;;5056619;28;20080;-78
2021/01/11 06:23:01;;;;;;;12.50;7.65;;;0.80;99.90;;;;;;5056405;28;20068;-77
2021/01/11 06:25:36;;;;;;;14.32;8.00;;;0.80;99.90;;;;;;5038847;28;20059;-79
2021/01/11 06:28:04;;;;;;;15.43;8.20;;;0.80;99.90;;;;;;5056816;28;20045;-78
2021/01/11 06:30:39;;;;;;;14.88;9.50;;;0.70;99.90;;;;;;5063537;28;20084;-78
2021/01/11 06:33:08;;;;;;;13.88;8.50;;;0.80;99.90;;;;;;5059732;28;20053;-83
2021/01/11 06:35:35;;;;;;;13.65;9.00;;;0.70;99.90;;;;;;5068012;28;20048;-80
2021/01/11 06:38:24;;;;;;;20.65;13.57;;;0.60;99.90;;;;;;5068347;28;20462;-81
2021/01/11 06:40:53;;;;;;;16.30;10.85;;;0.60;99.90;;;;;;5066922;28;20115;-79
2021/01/11 06:43:21;;;;;;;14.10;8.50;;;0.60;99.90;;;;;;5070788;28;20060;-78
2021/01/11 06:45:48;;;;;;;14.60;8.77;;;0.60;99.90;;;;;;5072037;28;20057;-82
2021/01/11 06:48:17;;;;;;;14.32;9.45;;;0.60;99.90;;;;;;5076998;28;20102;-83
2021/01/11 06:50:46;;;;;;;17.02;9.93;;;0.50;99.90;;;;;;5071263;28;20044;-78
2021/01/11 06:53:14;;;;;;;15.00;9.00;;;0.60;99.90;;;;;;5071607;28;20055;-80
2021/01/11 06:55:41;;;;;;;15.27;8.77;;;0.50;99.90;;;;;;5070935;28;20063;-81
2021/01/11 06:58:08;;;;;;;16.02;8.25;;;0.50;99.90;;;;;;5073766;28;20044;-77
2021/01/11 07:00:37;;;;;;;15.07;8.75;;;0.50;99.90;;;;;;5074895;28;20128;-81
2021/01/11 07:03:05;;;;;;;18.00;8.68;;;0.50;99.90;;;;;;5067565;28;20052;-80
2021/01/11 07:05:50;;;;;;;15.32;9.27;;;0.50;99.90;;;;;;5071771;28;20128;-79
2021/01/11 07:08:21;;;;;;;16.08;8.52;;;0.50;99.90;;;;;;5020095;28;20061;-78
2021/01/11 07:11:04;;;;;;;16.02;8.65;;;0.50;99.90;;;;;;5011551;28;20579;-78
2021/01/11 07:13:31;;;;;;;16.17;8.32;;;0.60;99.90;;;;;;5024388;28;20415;-79
2021/01/11 07:16:16;;;;;;;16.42;8.45;;;0.60;99.90;;;;;;5022224;28;20584;-77
2021/01/11 07:18:53;;;;;;;15.55;8.25;;;0.60;99.90;;;;;;5016080;28;20042;-78
2021/01/11 07:21:23;;;;;;;14.93;8.07;;;0.60;99.90;;;;;;4997727;28;20046;-79
2021/01/11 07:23:52;;;;;;;15.13;9.27;;;0.60;99.90;;;;;;5000001;28;20082;-79
2021/01/11 07:26:20;;;;;;;17.35;8.88;;;0.70;99.90;;;;;;5008459;28;20085;-81
2021/01/11 07:29:08;;;;;;;12.75;7.72;;;0.70;99.90;;;;;;5004311;28;20538;-82
2021/01/11 07:31:35;;;;;;;15.23;8.27;;;0.80;99.90;;;;;;4991733;28;20057;-80
2021/01/11 07:34:06;;;;;;;15.85;9.23;;;0.80;99.90;;;;;;4991142;28;20462;-81
2021/01/11 07:36:40;;;;;;;14.82;9.00;;;0.90;99.90;;;;;;5001628;28;20129;-79
2021/01/11 07:39:19;;;;;;;16.65;10.20;;;0.80;99.90;;;;;;5002048;28;20077;-79
2021/01/11 07:41:47;;;;;;;15.43;10.07;;;0.90;99.90;;;;;;5001316;28;20105;-79
2021/01/11 07:44:22;;;;;;;23.33;10.35;;;1.00;99.90;;;;;;5003657;28;20065;-79
2021/01/11 07:46:54;;;;;;;21.00;10.20;;;1.10;99.90;;;;;;5005612;28;20054;-78
2021/01/11 07:49:20;;;;;;;16.88;9.88;;;1.20;99.90;;;;;;4998368;28;20046;-80
2021/01/11 07:51:48;;;;;;;14.23;9.20;;;1.20;99.90;;;;;;4998270;28;20073;-78
2021/01/11 07:54:16;;;;;;;14.70;9.07;;;1.20;99.90;;;;;;4996618;28;20137;-78
2021/01/11 07:56:45;;;;;;;14.35;9.05;;;1.20;99.90;;;;;;5000887;28;20224;-78
2021/01/11 07:59:11;;;;;;;15.00;8.75;;;1.30;99.90;;;;;;5010757;28;20046;-78
2021/01/11 08:01:39;;;;;;;15.38;8.32;;;1.30;99.90;;;;;;5010345;28;20052;-78
2021/01/11 08:04:06;;;;;;;17.20;8.55;;;1.30;99.90;;;;;;4999497;28;20145;-78
2021/01/11 08:06:53;;;;;;;17.27;8.27;;;1.30;99.90;;;;;;4997714;28;20074;-78
2021/01/11 08:09:22;;;;;;;12.98;8.68;;;1.30;99.90;;;;;;4997064;28;20076;-78
2021/01/11 08:11:49;;;;;;;16.17;8.77;;;1.20;99.90;;;;;;4997248;28;20096;-79
2021/01/11 08:14:16;;;;;;;14.40;8.38;;;1.20;99.90;;;;;;4997285;28;20431;-78
2021/01/11 08:16:48;;;;;;;13.95;8.27;;;1.20;99.90;;;;;;4995466;28;20594;-79
2021/01/11 08:19:15;;;;;;;13.50;8.90;;;1.20;99.90;;;;;;4996295;28;20052;-77
2021/01/11 08:21:41;;;;;;;13.95;9.23;;;1.20;99.90;;;;;;4995462;28;20073;-78
2021/01/11 08:24:09;;;;;;;24.35;8.98;;;1.20;99.90;;;;;;4996663;28;20499;-78
2021/01/11 08:26:45;;;;;;;14.68;9.15;;;1.20;99.90;;;;;;4995742;28;20082;-78
2021/01/11 08:29:12;;;;;;;14.35;8.60;;;1.20;99.90;;;;;;4996356;28;20082;-78
2021/01/11 08:31:40;;;;;;;14.52;8.40;;;1.30;99.90;;;;;;4995989;28;20145;-78
2021/01/11 08:34:07;;;;;;;15.70;8.82;;;1.30;99.90;;;;;;4996916;28;20594;-78
2021/01/11 08:36:33;;;;;;;15.80;8.50;;;1.40;99.90;;;;;;4997216;28;20060;-79
2021/01/11 08:39:16;;;;;;;17.35;9.68;;;1.40;99.90;;;;;;4996678;28;20093;-79
2021/01/11 08:41:46;;;;;;;;;;;1.40;99.90;;;;;;4997731;28;20074;-78
2021/01/11 08:44:31;;;;;;;20.23;11.32;;;1.40;99.90;;;;;;4997607;28;19925;-78
2021/01/11 08:47:08;;;;;;;17.55;10.48;;;1.40;99.90;;;;;;4996364;28;20096;-78
2021/01/11 08:49:36;;;;;;;19.52;11.43;;;1.40;99.90;;;;;;4996391;28;20054;-78
2021/01/11 08:52:10;;;;;;;19.90;11.13;;;1.40;99.90;;;;;;4995728;28;20143;-80
2021/01/11 08:54:38;;;;;;;19.10;11.52;;;1.50;99.90;;;;;;4996619;28;20558;-81
2021/01/11 08:57:11;;;;;;;21.13;11.32;;;1.50;99.90;;;;;;4997691;28;20093;-78
2021/01/11 08:59:48;;;;;;;23.25;11.90;;;1.50;99.90;;;;;;4996932;28;20137;-78
2021/01/11 09:02:28;;;;;;;18.85;11.80;;;1.50;99.90;;;;;;4997084;28;20400;-78
2021/01/11 09:04:56;;;;;;;19.95;11.10;;;1.60;99.90;;;;;;4998359;28;20097;-78
2021/01/11 09:07:28;;;;;;;24.10;12.02;;;1.60;99.90;;;;;;4994359;28;20133;-78
2021/01/11 09:09:55;;;;;;;;;;;1.60;99.90;;;;;;4996862;28;20097;-78
2021/01/11 09:12:29;;;;;;;20.27;11.43;;;1.60;99.90;;;;;;4993503;28;19921;-77
2021/01/11 09:14:57;;;;;;;19.13;10.25;;;1.60;99.90;;;;;;4993519;28;20454;-78
2021/01/11 09:17:31;;;;;;;18.35;10.32;;;1.70;99.90;;;;;;4993507;28;20054;-78
2021/01/11 09:20:00;;;;;;;16.55;10.20;;;1.70;99.90;;;;;;4993491;28;20077;-77
2021/01/11 09:22:33;;;;;;;15.85;9.75;;;1.60;99.90;;;;;;5051206;23;20057;-81
2021/01/11 09:25:04;;;;;;;16.73;10.63;;;1.60;99.90;;;;;;5020748;28;20058;-82
2021/01/11 09:27:31;;;;;;;14.77;9.57;;;1.70;99.90;;;;;;5022924;28;20053;-83
2021/01/11 09:29:58;;;;;;;17.33;10.18;;;1.70;99.90;;;;;;5021543;28;20069;-82
2021/01/11 09:32:25;;;;;;;16.88;9.98;;;1.70;99.90;;;;;;5022515;28;20069;-82
2021/01/11 09:34:51;;;;;;;15.77;10.00;;;1.90;99.90;;;;;;5021735;28;20046;-82
2021/01/11 09:37:17;;;;;;;15.05;9.68;;;2.00;99.90;;;;;;5021757;28;20077;-82
2021/01/11 09:39:44;;;;;;;14.75;9.60;;;1.80;99.90;;;;;;5020203;28;20085;-81
2021/01/11 09:42:11;;;;;;;16.42;10.00;;;1.90;99.90;;;;;;5019930;28;20045;-79
2021/01/11 09:44:38;;;;;;;18.65;10.38;;;1.90;99.90;;;;;;5019148;28;20073;-82
2021/01/11 09:47:06;;;;;;;14.00;9.10;;;1.90;99.90;;;;;;5019030;28;20053;-83
2021/01/11 09:49:33;;;;;;;19.00;11.77;;;2.00;99.90;;;;;;5019157;28;20053;-82
2021/01/11 09:52:00;;;;;;;19.08;11.55;;;1.90;99.90;;;;;;5021585;28;20081;-82
2021/01/11 09:54:26;;;;;;;12.88;9.00;;;2.00;99.90;;;;;;5026590;28;20054;-82
2021/01/11 09:56:52;;;;;;;16.42;9.98;;;2.00;99.90;;;;;;5026060;28;20050;-81
2021/01/11 09:59:19;;;;;;;14.73;9.77;;;2.00;99.90;;;;;;5026803;28;20113;-82
2021/01/11 10:01:47;;;;;;;16.73;10.18;;;2.00;99.90;;;;;;5026002;28;20050;-82
2021/01/11 10:04:15;;;;;;;17.63;9.88;;;2.00;99.90;;;;;;5025712;28;20054;-82
2021/01/11 10:06:45;;;;;;;19.63;10.63;;;2.00;99.90;;;;;;5024628;28;20058;-82
2021/01/11 10:09:12;;;;;;;17.98;10.57;;;2.00;99.90;;;;;;5022926;28;20582;-83
2021/01/11 10:11:39;;;;;;;17.65;10.27;;;2.00;99.90;;;;;;5023858;28;20054;-83
2021/01/11 10:14:07;;;;;;;17.63;9.65;;;2.10;99.90;;;;;;5026858;28;20046;-82
2021/01/11 10:16:34;;;;;;;15.88;10.48;;;2.20;99.90;;;;;;5027397;28;20094;-82
2021/01/11 10:19:00;;;;;;;14.05;8.93;;;2.30;99.90;;;;;;5026782;28;20686;-81
2021/01/11 10:21:28;;;;;;;16.08;9.23;;;2.20;99.90;;;;;;5031830;28;20053;-82
2021/01/11 10:23:55;;;;;;;15.63;8.80;;;2.20;99.90;;;;;;5047268;28;20046;-81
2021/01/11 10:26:22;;;;;;;14.25;9.10;;;2.20;99.90;;;;;;5045742;28;20080;-82
2021/01/11 10:28:50;;;;;;;18.75;9.88;;;2.30;99.90;;;;;;5047245;28;20045;-82
2021/01/11 10:31:16;;;;;;;16.98;9.15;;;2.40;99.90;;;;;;5044426;28;20467;-83
2021/01/11 10:33:46;;;;;;;18.20;10.02;;;2.40;99.90;;;;;;5044893;28;20045;-81
2021/01/11 10:36:13;;;;;;;16.25;9.27;;;2.40;99.90;;;;;;5044171;28;20106;-81
2021/01/11 10:38:41;;;;;;;14.63;8.93;;;2.40;99.90;;;;;;5044025;28;20045;-81
2021/01/11 10:41:08;;;;;;;15.57;9.60;;;2.50;99.90;;;;;;5043998;28;20483;-81
2021/01/11 10:43:36;;;;;;;15.48;8.98;;;2.60;99.90;;;;;;5043165;28;20133;-82
2021/01/11 10:46:03;;;;;;;14.60;9.88;;;2.60;99.90;;;;;;5044114;28;20640;-84
2021/01/11 10:48:30;;;;;;;19.35;10.68;;;2.50;99.90;;;;;;5039569;28;20947;-81
2021/01/11 10:50:59;;;;;;;18.70;10.52;;;2.50;99.90;;;;;;5023483;28;20219;-81
2021/01/11 10:53:28;;;;;;;19.52;12.05;;;2.50;99.90;;;;;;5024248;28;20081;-82
2021/01/11 10:55:56;;;;;;;21.98;11.48;;;2.70;99.90;;;;;;5024956;28;20073;-82
2021/01/11 10:58:22;;;;;;;18.80;11.93;;;2.60;99.90;;;;;;5024338;28;20061;-81
2021/01/11 11:00:48;;;;;;;17.92;11.57;;;2.90;99.90;;;;;;5023545;28;20057;-82
2021/01/11 11:03:15;;;;;;;18.85;10.45;;;2.80;99.90;;;;;;5023735;28;20046;-82
2021/01/11 11:05:41;;;;;;;19.92;10.23;;;2.80;99.90;;;;;;5023851;28;20054;-83
2021/01/11 11:08:08;;;;;;;19.42;11.30;;;2.70;99.90;;;;;;5024213;28;20046;-82
2021/01/11 11:10:34;;;;;;;18.90;11.40;;;2.70;99.90;;;;;;5023814;28;20057;-81
2021/01/11 11:13:04;;;;;;;23.23;11.75;;;2.70;99.90;;;;;;5023885;28;20123;-82
2021/01/11 11:15:30;;;;;;;17.33;11.02;;;2.90;99.90;;;;;;5023733;28;20061;-81
2021/01/11 11:17:57;;;;;;;17.13;10.55;;;2.80;99.90;;;;;;5038033;28;20049;-82
2021/01/11 11:20:23;;;;;;;15.68;9.55;;;2.80;99.90;;;;;;5033958;28;20041;-82
2021/01/11 11:22:53;;;;;;;14.68;9.73;;;2.70;99.90;;;;;;5021946;28;20065;-82
2021/01/11 11:25:20;;;;;;;19.10;10.25;;;2.80;99.90;;;;;;5026052;28;20050;-82
2021/01/11 11:27:48;;;;;;;20.77;10.00;;;2.80;99.90;;;;;;5021310;28;20042;-82
2021/01/11 11:30:17;;;;;;;16.88;10.73;;;2.80;99.90;;;;;;5012234;28;20046;-82
2021/01/11 11:32:47;;;;;;;15.13;9.45;;;2.80;99.90;;;;;;5019805;28;20057;-83
2021/01/11 11:35:14;;;;;;;17.70;9.73;;;2.80;99.90;;;;;;5027649;28;20046;-82
2021/01/11 11:37:41;;;;;;;17.35;10.25;;;2.80;99.90;;;;;;5026611;28;20038;-81
2021/01/11 11:40:10;;;;;;;18.55;10.43;;;2.80;99.90;;;;;;5022952;28;20050;-82
2021/01/11 11:42:36;;;;;;;18.70;11.48;;;2.80;99.90;;;;;;5025111;28;20046;-82
2021/01/11 11:45:05;;;;;;;22.17;11.18;;;2.90;99.90;;;;;;5021815;28;20076;-81
2021/01/11 11:47:33;;;;;;;17.90;11.30;;;2.90;99.90;;;;;;5024726;28;20088;-83
2021/01/11 11:50:01;;;;;;;21.13;12.30;;;2.90;99.90;;;;;;5019937;28;20049;-81
2021/01/11 11:52:27;;;;;;;18.67;10.90;;;2.90;99.90;;;;;;5035181;28;20045;-82
2021/01/11 11:54:53;;;;;;;18.98;11.57;;;2.90;99.90;;;;;;5020862;28;20077;-82
2021/01/11 11:57:20;;;;;;;18.55;11.93;;;2.90;99.90;;;;;;5019967;28;20099;-81
2021/01/11 11:59:48;;;;;;;18.08;11.60;;;2.90;99.90;;;;;;5022650;28;20065;-81
2021/01/11 12:02:15;;;;;;;22.13;11.75;;;2.90;99.90;;;;;;5022424;28;20045;-81
2021/01/11 12:04:42;;;;;;;18.15;11.63;;;2.90;99.90;;;;;;5023776;28;20041;-82
2021/01/11 12:07:13;;;;;;;20.15;12.15;;;3.00;99.90;;;;;;5018318;28;20049;-82
2021/01/11 12:09:39;;;;;;;20.35;12.10;;;3.00;99.90;;;;;;5019952;28;20104;-82
2021/01/11 12:12:06;;;;;;;23.73;13.25;;;3.00;99.90;;;;;;5011421;28;20494;-82
2021/01/11 12:14:32;;;;;;;22.35;12.10;;;3.00;99.90;;;;;;5011077;28;20077;-82
2021/01/11 12:16:58;;;;;;;23.05;12.85;;;3.00;99.90;;;;;;5021952;28;20050;-81
2021/01/11 12:19:25;;;;;;;19.65;12.05;;;3.00;99.90;;;;;;5023740;28;20395;-82
2021/01/11 12:21:53;;;;;;;19.88;12.32;;;3.10;99.90;;;;;;5026896;28;20107;-82
2021/01/11 12:24:19;;;;;;;18.40;11.27;;;3.10;99.90;;;;;;5041032;28;20085;-82
2021/01/11 12:26:48;;;;;;;18.17;11.32;;;3.20;99.90;;;;;;5042305;28;20135;-82
2021/01/11 12:29:16;;;;;;;18.67;11.85;;;3.20;99.90;;;;;;5041907;28;20077;-82
2021/01/11 12:31:44;;;;;;;20.10;11.60;;;3.10;99.90;;;;;;5040710;28;20502;-81
2021/01/11 12:34:19;;;;;;;20.35;10.63;;;3.10;99.90;;;;;;5042231;28;20506;-82
2021/01/11 12:36:45;;;;;;;23.08;13.07;;;3.10;99.90;;;;;;5041293;28;20049;-84
2021/01/11 12:39:13;;;;;;;18.48;11.73;;;3.10;99.90;;;;;;5042244;28;20084;-82
2021/01/11 12:41:40;;;;;;;19.85;11.88;;;3.10;99.90;;;;;;5042335;28;20121;-82
2021/01/11 12:44:08;;;;;;;17.52;11.05;;;3.20;99.90;;;;;;5042191;28;20068;-81
2021/01/11 12:46:35;;;;;;;20.13;11.82;;;3.20;99.90;;;;;;5041380;28;20049;-82
2021/01/11 12:49:02;;;;;;;19.42;11.35;;;3.20;99.90;;;;;;5042441;28;20085;-82
2021/01/11 12:51:28;;;;;;;19.52;11.32;;;3.20;99.90;;;;;;5039880;28;20049;-83
2021/01/11 12:53:55;;;;;;;20.88;12.40;;;3.20;99.90;;;;;;5041422;28;20045;-81